sim
Sign-in with your pilot id or email,
or register
Callsign
Passwort

Schedule Details

Flight Number: RYR17 (1)
Departure: Thessaloniki International Airport (LGTS) at 10:50
Arrival: Athens Eleftherios Venizelos (LGAV) at 11:50
Route: Ryanair Passenger Schedule. Enter filed route here before submitting Pirep.

Weather Information
Getting current METAR information for LGTS 211550Z 35005KT CAVOK 14/00 Q1021 NOSIG
Getting current METAR information for LGAV 211550Z 03009KT 9999 FEW030 13/07 Q1023 NOSIG

Schedule Frequency

Route Map